Time;durP1;ratioP1;P1;durP2;ratioP2;P2;SDS_P1;SDS_P2;PMS_P1;PMS_P2;Temp;Humidity;BMP_temperature;BMP_pressure;BME280_temperature;BME280_humidity;BME280_pressure;Samples;Min_cycle;Max_cycle;Signal;HPM_P1;HPM_P2
2022/04/01 00:00:18;;;;;;;1.95;0.10;;;21.20;37.00;;;;;;5080303;28;20093;-60
2022/04/01 00:02:47;;;;;;;0.88;0.20;;;21.20;37.00;;;;;;5069124;28;20045;-60
2022/04/01 00:05:15;;;;;;;0.45;0.40;;;21.20;37.00;;;;;;5078795;28;20051;-61
2022/04/01 00:07:43;;;;;;;0.20;0.13;;;21.20;36.90;;;;;;5070020;28;20101;-61
2022/04/01 00:10:11;;;;;;;0.40;0.10;;;21.10;36.90;;;;;;5073733;28;20041;-61
2022/04/01 00:12:43;;;;;;;0.68;0.10;;;21.10;36.90;;;;;;5082913;28;20055;-61
2022/04/01 00:15:12;;;;;;;0.73;0.20;;;21.10;36.90;;;;;;5083273;28;20118;-61
2022/04/01 00:17:40;;;;;;;0.28;0.10;;;21.10;36.90;;;;;;5072975;28;20044;-60
2022/04/01 00:20:09;;;;;;;2.17;0.10;;;21.10;36.80;;;;;;5081304;28;20543;-64
2022/04/01 00:22:38;;;;;;;0.35;0.10;;;21.10;36.80;;;;;;5068834;28;20044;-61
2022/04/01 00:25:06;;;;;;;1.45;0.30;;;21.10;36.80;;;;;;5077755;28;20040;-60
2022/04/01 00:27:34;;;;;;;0.40;0.10;;;21.10;36.80;;;;;;5081126;28;20063;-61
2022/04/01 00:30:01;;;;;;;1.65;0.57;;;21.10;36.90;;;;;;5077143;28;20528;-61
2022/04/01 00:32:31;;;;;;;0.40;0.10;;;21.00;36.80;;;;;;5071445;28;20124;-61
2022/04/01 00:34:59;;;;;;;1.48;0.28;;;21.00;36.80;;;;;;5072443;28;20041;-60
2022/04/01 00:37:27;;;;;;;0.25;0.05;;;21.10;36.80;;;;;;5069459;28;20041;-61
2022/04/01 00:39:55;;;;;;;1.25;0.10;;;21.00;36.70;;;;;;5075636;28;20074;-60
2022/04/01 00:42:25;;;;;;;0.45;0.10;;;21.00;36.80;;;;;;5075273;28;20496;-60
2022/04/01 00:44:53;;;;;;;0.20;0.10;;;21.00;36.70;;;;;;5074065;28;20721;-61
2022/04/01 00:47:20;;;;;;;1.20;0.20;;;21.00;36.70;;;;;;5071653;28;20047;-60
2022/04/01 00:49:48;;;;;;;0.40;0.40;;;21.00;36.70;;;;;;5071731;28;20463;-61
2022/04/01 00:52:17;;;;;;;2.53;0.20;;;21.00;36.70;;;;;;5072909;28;20131;-60
2022/04/01 00:54:45;;;;;;;0.68;0.20;;;21.00;36.70;;;;;;5074460;28;20535;-60
2022/04/01 00:57:15;;;;;;;0.88;0.10;;;20.90;36.60;;;;;;5081778;28;20472;-60
2022/04/01 00:59:43;;;;;;;1.38;0.20;;;21.00;36.70;;;;;;5072939;28;20427;-60
2022/04/01 01:02:10;;;;;;;2.63;0.40;;;20.90;36.70;;;;;;5080350;28;20123;-60
2022/04/01 01:04:38;;;;;;;0.52;0.10;;;20.90;36.70;;;;;;5069597;28;20767;-61
2022/04/01 01:07:06;;;;;;;0.43;0.20;;;20.90;36.60;;;;;;5077041;28;20068;-60
2022/04/01 01:09:33;;;;;;;0.17;0.00;;;20.90;36.60;;;;;;5072451;28;20072;-53
2022/04/01 01:12:01;;;;;;;1.83;0.40;;;20.90;36.60;;;;;;5074821;28;20036;-52
2022/04/01 01:14:31;;;;;;;1.83;0.15;;;20.90;36.80;;;;;;5075763;28;20044;-54
2022/04/01 01:17:00;;;;;;;5.90;0.20;;;20.80;37.10;;;;;;5088139;27;20040;-47
2022/04/01 01:19:27;;;;;;;4.00;0.10;;;20.80;37.30;;;;;;5083129;28;20044;-51
2022/04/01 01:21:56;;;;;;;1.20;0.10;;;20.80;37.40;;;;;;5081358;28;20462;-53
2022/04/01 01:24:28;;;;;;;2.00;0.10;;;20.80;37.50;;;;;;5079119;28;20074;-50
2022/04/01 01:26:57;;;;;;;4.80;0.10;;;20.80;37.60;;;;;;5075134;28;20037;-51
2022/04/01 01:29:27;;;;;;;5.22;0.00;;;20.70;37.60;;;;;;5079912;28;20055;-53
2022/04/01 01:31:58;;;;;;;3.00;0.10;;;20.80;37.70;;;;;;5076413;28;20109;-48
2022/04/01 01:34:27;;;;;;;4.28;0.25;;;20.70;37.80;;;;;;5075991;28;20048;-49
2022/04/01 01:36:54;;;;;;;0.68;0.05;;;20.70;37.90;;;;;;5084869;28;20385;-47
2022/04/01 01:39:22;;;;;;;0.20;0.10;;;20.70;38.00;;;;;;5077427;28;20036;-51
2022/04/01 01:41:53;;;;;;;2.38;0.10;;;20.70;38.10;;;;;;5079716;28;20139;-53
2022/04/01 01:44:23;;;;;;;0.63;0.10;;;20.70;38.20;;;;;;5074514;28;20115;-50
2022/04/01 01:46:52;;;;;;;5.05;0.52;;;20.70;38.30;;;;;;5079910;28;20496;-54
2022/04/01 01:49:21;;;;;;;4.10;0.28;;;20.70;38.40;;;;;;5080613;28;20055;-51
2022/04/01 01:54:44;;;;;;;1.45;0.10;;;20.70;38.60;;;;;;5078195;28;20123;-50
2022/04/01 01:57:16;;;;;;;0.93;0.10;;;20.70;38.70;;;;;;5086720;28;20068;-49
2022/04/01 01:59:44;;;;;;;2.13;0.20;;;20.70;38.80;;;;;;5080065;28;20136;-49
2022/04/01 02:02:11;;;;;;;3.45;0.28;;;20.70;38.80;;;;;;5078008;28;20071;-51
2022/04/01 02:04:40;;;;;;;0.88;0.00;;;20.70;38.80;;;;;;5079310;28;26984;-54
2022/04/01 02:07:08;;;;;;;4.15;1.45;;;20.70;38.80;;;;;;5082457;28;20044;-49
2022/04/01 02:09:35;;;;;;;1.35;0.20;;;20.70;38.90;;;;;;5076618;28;20045;-51
2022/04/01 02:12:03;;;;;;;2.20;0.10;;;20.70;38.90;;;;;;5065386;28;20385;-52
2022/04/01 02:14:33;;;;;;;2.08;0.20;;;20.70;39.00;;;;;;5081561;28;20288;-51
2022/04/01 02:17:01;;;;;;;0.75;0.17;;;20.70;39.00;;;;;;5064676;28;20051;-51
2022/04/01 02:19:30;;;;;;;0.98;0.10;;;20.70;39.10;;;;;;5080378;28;20521;-52
2022/04/01 02:21:58;;;;;;;1.75;0.17;;;20.70;39.20;;;;;;5080967;28;20071;-53
2022/04/01 02:24:26;;;;;;;2.33;0.10;;;20.80;39.20;;;;;;5072235;28;20045;-46
2022/04/01 02:26:53;;;;;;;0.15;0.10;;;20.70;39.30;;;;;;5076640;28;20068;-47
2022/04/01 02:29:23;;;;;;;0.30;0.00;;;20.80;39.40;;;;;;5075458;28;20505;-48
2022/04/01 02:32:10;;;;;;;1.80;0.40;;;20.80;39.40;;;;;;5073604;28;20040;-46
2022/04/01 02:34:56;;;;;;;0.95;0.25;;;20.80;39.50;;;;;;5071492;28;20036;-50
2022/04/01 02:37:25;;;;;;;1.52;0.10;;;20.80;39.50;;;;;;5072464;28;20052;-50
2022/04/01 02:39:53;;;;;;;0.93;0.10;;;20.80;39.60;;;;;;5079065;28;20068;-51
2022/04/01 02:42:23;;;;;;;0.55;0.13;;;20.80;39.60;;;;;;5081611;28;20051;-52
2022/04/01 02:44:50;;;;;;;0.10;0.10;;;20.80;39.70;;;;;;5080947;28;20131;-52
2022/04/01 02:47:20;;;;;;;1.00;0.05;;;20.80;39.80;;;;;;5077520;28;20044;-50
2022/04/01 02:49:48;;;;;;;3.03;0.15;;;20.80;39.80;;;;;;5073363;28;20115;-51
2022/04/01 02:52:15;;;;;;;0.32;0.00;;;20.80;39.80;;;;;;5078296;28;20107;-49
2022/04/01 02:54:42;;;;;;;2.05;0.08;;;20.80;39.80;;;;;;5076614;28;20063;-52
2022/04/01 02:57:10;;;;;;;1.63;0.10;;;20.80;39.90;;;;;;5077605;28;20055;-50
2022/04/01 02:59:37;;;;;;;1.60;0.20;;;20.80;39.90;;;;;;5071889;28;20078;-50
2022/04/01 03:02:06;;;;;;;0.68;0.10;;;20.80;40.00;;;;;;5071539;28;20044;-52
2022/04/01 03:04:34;;;;;;;2.78;0.20;;;20.90;40.10;;;;;;5067185;28;20455;-50
2022/04/01 03:07:03;;;;;;;0.75;0.30;;;20.90;40.10;;;;;;5073808;28;20044;-52
2022/04/01 03:09:32;;;;;;;0.95;0.10;;;20.90;40.20;;;;;;5071013;28;20064;-55
2022/04/01 03:12:08;;;;;;;1.25;0.10;;;20.90;40.30;;;;;;5076704;28;20052;-53
2022/04/01 03:14:58;;;;;;;0.73;0.30;;;20.90;40.40;;;;;;5016347;28;20049;-52
2022/04/01 03:17:44;;;;;;;7.28;1.65;;;20.90;40.40;;;;;;5012999;28;20049;-54
2022/04/01 03:20:23;;;;;;;0.68;0.00;;;20.90;40.60;;;;;;5005375;28;20062;-51
2022/04/01 03:22:51;;;;;;;3.55;0.10;;;20.90;40.70;;;;;;5006471;28;20124;-50
2022/04/01 03:25:22;;;;;;;1.88;0.10;;;20.90;40.80;;;;;;5007996;28;20616;-49
2022/04/01 03:28:08;;;;;;;5.47;0.20;;;20.80;40.80;;;;;;5007841;28;20069;-52
2022/04/01 03:30:35;;;;;;;5.57;0.10;;;20.90;40.90;;;;;;4998351;28;20058;-48
2022/04/01 03:33:03;;;;;;;0.45;0.10;;;20.90;41.00;;;;;;5019663;28;20057;-50
2022/04/01 03:35:32;;;;;;;1.65;0.10;;;20.90;41.00;;;;;;5016345;28;20935;-51
2022/04/01 03:38:00;;;;;;;2.10;0.20;;;21.00;41.00;;;;;;5021494;28;20599;-50
2022/04/01 03:40:29;;;;;;;2.22;0.17;;;21.00;41.00;;;;;;5001039;28;20046;-51
2022/04/01 03:42:56;;;;;;;0.75;0.10;;;21.00;41.00;;;;;;5013014;28;20541;-50
2022/04/01 03:45:24;;;;;;;0.52;0.10;;;21.00;41.00;;;;;;5005801;28;20071;-48
2022/04/01 03:48:00;;;;;;;1.10;0.20;;;21.00;41.00;;;;;;5014571;28;20046;-48
2022/04/01 03:50:35;;;;;;;3.83;0.10;;;21.00;41.00;;;;;;4998615;28;20081;-52
2022/04/01 03:53:05;;;;;;;1.02;0.45;;;21.00;41.00;;;;;;5072643;28;20063;-49
2022/04/01 03:55:34;;;;;;;1.20;0.00;;;21.00;41.00;;;;;;5071126;28;20156;-51
2022/04/01 03:58:27;;;;;;;0.65;0.00;;;21.00;41.10;;;;;;5071530;28;20509;-52
2022/04/01 04:01:12;;;;;;;0.73;0.10;;;20.90;41.10;;;;;;5066608;28;20048;-53
2022/04/01 04:03:40;;;;;;;0.25;0.10;;;21.00;41.20;;;;;;5055043;28;20053;-52
2022/04/01 04:06:10;;;;;;;1.60;0.20;;;21.00;41.30;;;;;;5034653;28;1148182;-51
2022/04/01 04:08:39;;;;;;;0.82;0.10;;;21.00;41.30;;;;;;5073792;28;20488;-48
2022/04/01 04:11:09;;;;;;;0.15;0.10;;;21.00;41.30;;;;;;5081235;28;20032;-52
2022/04/01 04:14:01;;;;;;;0.55;0.10;;;21.00;41.30;;;;;;5043404;28;20052;-49
2022/04/01 04:16:30;;;;;;;0.70;0.20;;;21.00;41.30;;;;;;5043697;28;20187;-48
2022/04/01 04:19:04;;;;;;;0.10;0.00;;;21.00;41.30;;;;;;5044793;28;20057;-49
2022/04/01 04:21:38;;;;;;;;;;;21.00;41.30;;;;;;5043780;28;20101;-46
2022/04/01 04:24:11;;;;;;;0.32;0.10;;;20.90;41.10;;;;;;5043256;28;19932;-48
2022/04/01 04:26:43;;;;;;;0.17;0.05;;;21.00;41.30;;;;;;5018663;28;20084;-48
2022/04/01 04:29:13;;;;;;;0.08;0.00;;;21.00;41.20;;;;;;5013488;28;20117;-46
2022/04/01 04:32:03;;;;;;;0.85;0.10;;;21.00;41.10;;;;;;5043551;28;20049;-53
2022/04/01 04:34:37;;;;;;;2.10;0.40;;;21.00;41.10;;;;;;5020754;28;20107;-50
2022/04/01 04:37:09;;;;;;;0.70;0.10;;;21.00;41.10;;;;;;5010168;28;20168;-49
2022/04/01 04:39:41;;;;;;;0.10;0.00;;;21.00;41.00;;;;;;5044258;28;20216;-51
2022/04/01 04:42:09;;;;;;;0.10;0.00;;;21.00;41.00;;;;;;5043475;28;20049;-52
2022/04/01 04:44:38;;;;;;;0.50;0.00;;;21.00;40.90;;;;;;5042271;28;20199;-48
2022/04/01 04:47:07;;;;;;;0.10;0.00;;;21.00;40.90;;;;;;5043114;28;20116;-48
2022/04/01 04:49:34;;;;;;;0.93;0.10;;;21.00;40.90;;;;;;5025382;28;20053;-48
2022/04/01 04:52:02;;;;;;;0.35;0.00;;;21.00;40.90;;;;;;5071071;28;20052;-51
2022/04/01 04:54:45;;;;;;;0.93;0.17;;;21.00;40.80;;;;;;5096759;28;20040;-48
2022/04/01 04:57:36;;;;;;;0.30;0.15;;;21.00;40.80;;;;;;5077930;28;20072;-50
2022/04/01 05:00:05;;;;;;;0.50;0.10;;;21.00;40.70;;;;;;5078118;28;20161;-52
2022/04/01 05:03:17;;;;;;;0.90;0.00;;;21.00;40.70;;;;;;5072616;28;20048;-51
2022/04/01 05:05:49;;;;;;;0.00;0.00;;;21.00;40.60;;;;;;5073090;28;20523;-49
2022/04/01 05:08:35;;;;;;;0.10;0.00;;;21.00;40.60;;;;;;5075767;28;20039;-48
2022/04/01 05:11:35;;;;;;;1.23;0.00;;;21.00;40.60;;;;;;5074126;28;20044;-50
2022/04/01 05:14:13;;;;;;;0.80;0.40;;;21.00;40.50;;;;;;5080342;28;20044;-45
2022/04/01 05:16:49;;;;;;;0.10;0.00;;;21.00;40.50;;;;;;5066649;28;20133;-47
2022/04/01 05:19:25;;;;;;;0.25;0.00;;;21.00;40.50;;;;;;5074532;28;20044;-53
2022/04/01 05:22:01;;;;;;;0.00;0.00;;;21.00;40.50;;;;;;5071900;28;20047;-49
2022/04/01 05:24:38;;;;;;;0.15;0.15;;;21.00;40.50;;;;;;5074253;28;20058;-49
2022/04/01 05:27:16;;;;;;;0.10;0.00;;;21.00;40.50;;;;;;5076018;28;20055;-50
2022/04/01 05:30:16;;;;;;;0.43;0.00;;;20.90;40.40;;;;;;5067363;28;20206;-51
2022/04/01 05:33:00;;;;;;;0.00;0.00;;;20.90;40.40;;;;;;5071211;28;20052;-52
2022/04/01 05:35:30;;;;;;;0.65;0.00;;;20.90;40.40;;;;;;5071946;28;20122;-49
2022/04/01 05:37:59;;;;;;;0.00;0.00;;;20.90;40.40;;;;;;5080001;28;20039;-52
2022/04/01 05:40:28;;;;;;;1.05;0.10;;;20.90;40.30;;;;;;5067174;28;20068;-50
2022/04/01 05:42:58;;;;;;;0.28;0.00;;;20.90;40.20;;;;;;5084804;28;20126;-50
2022/04/01 05:45:44;;;;;;;0.10;0.00;;;20.90;40.10;;;;;;5073473;28;20055;-52
2022/04/01 05:48:14;;;;;;;0.10;0.00;;;20.90;40.20;;;;;;5070865;28;20044;-50
2022/04/01 05:50:44;;;;;;;0.00;0.00;;;20.90;40.10;;;;;;5078038;28;20052;-50
2022/04/01 05:53:14;;;;;;;0.00;0.00;;;20.80;40.10;;;;;;5070383;28;20044;-46
2022/04/01 05:55:52;;;;;;;0.10;0.00;;;20.90;40.10;;;;;;5069936;28;20041;-48
2022/04/01 05:58:20;;;;;;;0.73;0.00;;;20.80;40.10;;;;;;5070515;28;20051;-51
2022/04/01 06:00:59;;;;;;;0.77;0.30;;;20.80;40.00;;;;;;5074912;28;20044;-47
2022/04/01 06:03:49;;;;;;;0.93;0.00;;;20.80;40.00;;;;;;5078858;28;20055;-48
2022/04/01 06:06:22;;;;;;;0.10;0.00;;;20.80;40.00;;;;;;5066912;28;20122;-47
2022/04/01 06:08:58;;;;;;;0.00;0.00;;;20.80;40.00;;;;;;5077175;28;20044;-47
2022/04/01 06:12:02;;;;;;;2.13;0.00;;;20.80;40.00;;;;;;5003086;28;20605;-50
2022/04/01 06:14:59;;;;;;;0.10;0.00;;;20.90;40.10;;;;;;5007129;28;20592;-51
2022/04/01 06:17:58;;;;;;;1.55;0.00;;;20.80;40.00;;;;;;4951714;28;20152;-50
2022/04/01 06:20:29;;;;;;;0.00;0.00;;;20.80;40.10;;;;;;4946122;28;20098;-53
2022/04/01 06:23:01;;;;;;;0.10;0.00;;;20.80;40.10;;;;;;4942464;28;20069;-51
2022/04/01 06:25:32;;;;;;;0.00;0.00;;;20.80;40.10;;;;;;4947703;28;20200;-49
2022/04/01 06:28:09;;;;;;;0.15;0.00;;;20.80;40.10;;;;;;4938224;28;20409;-49
2022/04/01 06:30:39;;;;;;;0.25;0.03;;;20.80;40.10;;;;;;4943987;28;20038;-49
2022/04/01 06:33:21;;;;;;;0.00;0.00;;;20.80;40.00;;;;;;4937671;29;20067;-49
2022/04/01 06:36:05;;;;;;;0.30;0.00;;;20.80;40.00;;;;;;4952767;28;20055;-53
2022/04/01 06:38:40;;;;;;;0.00;0.00;;;20.80;40.00;;;;;;4935743;28;20055;-51
2022/04/01 06:41:08;;;;;;;0.13;0.00;;;20.80;40.00;;;;;;4942264;28;20051;-51
2022/04/01 06:43:48;;;;;;;0.10;0.00;;;20.80;40.00;;;;;;4944893;28;20043;-51
2022/04/01 06:46:43;;;;;;;1.52;0.00;;;20.80;40.00;;;;;;4913512;28;20619;-51
2022/04/01 06:49:24;;;;;;;0.10;0.00;;;20.70;39.90;;;;;;4928565;29;20063;-50
2022/04/01 06:52:09;;;;;;;0.05;0.00;;;20.70;39.90;;;;;;4948255;28;20555;-45
2022/04/01 06:54:59;;;;;;;0.00;0.00;;;20.70;39.90;;;;;;4993065;28;20194;-53
2022/04/01 06:57:45;;;;;;;0.00;0.00;;;20.70;39.90;;;;;;5040047;28;20049;-51
2022/04/01 07:00:26;;;;;;;0.00;0.00;;;20.70;39.90;;;;;;5017073;28;20045;-51
2022/04/01 07:02:55;;;;;;;0.10;0.00;;;20.70;40.00;;;;;;5036467;28;20579;-52
2022/04/01 07:05:22;;;;;;;0.00;0.00;;;20.70;39.90;;;;;;5030790;28;20053;-51
2022/04/01 07:07:49;;;;;;;0.75;0.00;;;20.70;39.90;;;;;;5040875;28;20049;-48
2022/04/01 07:10:16;;;;;;;0.65;0.00;;;20.70;39.90;;;;;;5032651;28;20059;-47
2022/04/01 07:12:43;;;;;;;0.00;0.00;;;20.70;39.90;;;;;;5037640;28;20061;-50
2022/04/01 07:15:11;;;;;;;0.00;0.00;;;20.70;39.80;;;;;;5030683;28;20200;-50
2022/04/01 07:17:39;;;;;;;1.50;0.00;;;20.70;39.90;;;;;;5034253;28;20191;-51
2022/04/01 07:20:10;;;;;;;0.10;0.08;;;20.70;39.80;;;;;;5029921;28;20041;-56
2022/04/01 07:22:38;;;;;;;0.05;0.00;;;20.70;39.80;;;;;;5034541;28;20061;-50
2022/04/01 07:25:06;;;;;;;3.70;0.08;;;20.70;39.80;;;;;;5072601;28;20127;-52
2022/04/01 07:27:34;;;;;;;0.00;0.00;;;20.70;39.80;;;;;;5078937;28;20052;-48
2022/04/01 07:30:01;;;;;;;0.00;0.00;;;20.70;39.80;;;;;;5079042;28;20048;-49
2022/04/01 07:32:32;;;;;;;0.22;0.10;;;20.70;39.80;;;;;;5079103;28;20671;-50
2022/04/01 07:35:01;;;;;;;0.10;0.00;;;20.70;39.80;;;;;;5070055;28;20042;-48
2022/04/01 07:37:31;;;;;;;0.45;0.00;;;20.70;39.70;;;;;;5074802;28;20049;-50
2022/04/01 07:39:58;;;;;;;0.05;0.05;;;20.70;40.30;;;;;;5074013;28;20052;-46
2022/04/01 07:42:27;;;;;;;0.00;0.00;;;20.70;39.80;;;;;;5082310;28;20040;-50
2022/04/01 07:44:54;;;;;;;0.00;0.00;;;20.70;39.70;;;;;;5078223;28;20135;-52
2022/04/01 07:47:22;;;;;;;0.00;0.00;;;20.70;39.70;;;;;;5073865;28;20056;-57
2022/04/01 07:49:50;;;;;;;0.10;0.00;;;20.70;40.30;;;;;;5069293;28;20046;-57
2022/04/01 07:52:19;;;;;;;3.55;0.00;;;20.70;39.60;;;;;;5080588;28;20040;-53
2022/04/01 07:54:49;;;;;;;1.95;0.10;;;20.70;39.40;;;;;;5081972;28;20064;-54
2022/04/01 07:57:18;;;;;;;0.57;0.00;;;20.70;39.30;;;;;;5070427;28;20090;-53
2022/04/01 07:59:47;;;;;;;1.95;0.00;;;20.70;39.20;;;;;;5071170;28;20068;-58
2022/04/01 08:02:15;;;;;;;0.00;0.00;;;20.70;39.30;;;;;;5071352;28;20040;-52
2022/04/01 08:04:42;;;;;;;0.28;0.00;;;20.80;39.30;;;;;;5069566;28;20044;-54
2022/04/01 08:07:10;;;;;;;1.08;0.70;;;20.90;39.30;;;;;;5067817;28;20137;-57
2022/04/01 08:09:38;;;;;;;0.30;0.00;;;20.90;39.20;;;;;;5074309;28;20055;-53
2022/04/01 08:12:08;;;;;;;0.00;0.00;;;21.00;39.20;;;;;;5076016;28;20125;-53
2022/04/01 08:14:37;;;;;;;1.95;0.00;;;21.10;39.20;;;;;;5076454;28;20082;-54
2022/04/01 08:17:06;;;;;;;0.95;0.52;;;21.20;39.10;;;;;;5068656;28;20092;-56
2022/04/01 08:19:34;;;;;;;0.10;0.10;;;21.20;39.50;;;;;;5066282;28;20109;-52
2022/04/01 08:22:01;;;;;;;0.80;0.10;;;21.30;38.90;;;;;;5073093;28;20056;-50
2022/04/01 08:24:28;;;;;;;0.10;0.05;;;21.30;38.70;;;;;;5073714;28;20040;-50
2022/04/01 08:26:57;;;;;;;0.00;0.00;;;21.40;38.60;;;;;;5073338;28;20101;-50
2022/04/01 08:29:27;;;;;;;0.00;0.00;;;21.40;38.40;;;;;;5070829;28;20076;-52
2022/04/01 08:31:55;;;;;;;0.15;0.00;;;21.50;38.40;;;;;;5071834;28;20056;-54
2022/04/01 08:34:23;;;;;;;1.45;0.00;;;21.60;38.30;;;;;;5072216;28;20044;-54
2022/04/01 08:36:50;;;;;;;1.75;0.00;;;21.60;38.20;;;;;;5074454;28;20135;-54
2022/04/01 08:39:18;;;;;;;0.00;0.00;;;21.60;38.00;;;;;;5064158;28;20046;-53
2022/04/01 08:41:45;;;;;;;0.05;0.00;;;21.70;37.90;;;;;;5071502;28;20131;-71
2022/04/01 08:44:13;;;;;;;0.10;0.10;;;21.70;37.70;;;;;;5075701;28;20089;-65
2022/04/01 08:46:42;;;;;;;0.10;0.10;;;21.80;37.70;;;;;;5069681;28;20048;-52
2022/04/01 08:49:09;;;;;;;0.75;0.00;;;21.80;37.50;;;;;;5079647;28;20086;-56
2022/04/01 08:51:36;;;;;;;0.10;0.10;;;21.80;37.50;;;;;;5072694;28;20433;-50
2022/04/01 08:54:04;;;;;;;0.63;0.00;;;21.80;37.50;;;;;;5073712;28;20076;-47
2022/04/01 08:56:32;;;;;;;0.40;0.05;;;21.90;37.50;;;;;;5072978;28;20076;-58
2022/04/01 08:58:59;;;;;;;2.17;0.00;;;21.90;37.50;;;;;;5077309;28;20036;-48
2022/04/01 09:01:39;;;;;;;0.22;0.20;;;21.90;37.40;;;;;;5067938;28;20118;-49
2022/04/01 09:04:21;;;;;;;1.48;0.00;;;21.90;37.30;;;;;;5070435;28;20091;-49
2022/04/01 09:06:48;;;;;;;0.00;0.00;;;22.00;37.30;;;;;;5049607;28;20060;-46
2022/04/01 09:09:25;;;;;;;0.00;0.00;;;22.00;37.20;;;;;;5051131;28;20041;-47
2022/04/01 09:12:13;;;;;;;0.10;0.10;;;22.00;37.20;;;;;;5053469;28;20048;-44
2022/04/01 09:14:42;;;;;;;0.10;0.00;;;22.10;37.10;;;;;;5053512;28;20094;-47
2022/04/01 09:17:11;;;;;;;0.00;0.00;;;22.10;37.10;;;;;;5047809;28;20036;-61
2022/04/01 09:19:40;;;;;;;0.00;0.00;;;22.10;36.90;;;;;;5048416;28;20033;-66
2022/04/01 09:22:19;;;;;;;0.00;0.00;;;22.20;37.00;;;;;;5070588;28;20044;-65
2022/04/01 09:24:58;;;;;;;0.52;0.10;;;22.20;36.80;;;;;;5065581;28;20055;-59
2022/04/01 09:27:40;;;;;;;0.10;0.10;;;22.30;36.60;;;;;;5057800;28;20104;-61
2022/04/01 09:30:09;;;;;;;0.00;0.00;;;22.30;36.40;;;;;;5057684;28;20044;-59
2022/04/01 09:32:38;;;;;;;0.15;0.00;;;22.30;36.30;;;;;;5052328;28;20051;-59
2022/04/01 09:35:11;;;;;;;0.10;0.10;;;22.40;36.30;;;;;;5051025;28;20505;-55
2022/04/01 09:37:40;;;;;;;0.00;0.00;;;22.40;36.10;;;;;;5048141;28;20603;-59
2022/04/01 09:40:10;;;;;;;0.00;0.00;;;22.50;35.90;;;;;;5047820;28;20804;-59
2022/04/01 09:42:38;;;;;;;0.25;0.00;;;22.60;35.80;;;;;;5063153;28;20056;-52
2022/04/01 09:45:06;;;;;;;0.17;0.17;;;22.60;35.80;;;;;;5057014;28;20135;-59
2022/04/01 09:47:38;;;;;;;0.05;0.00;;;22.60;35.60;;;;;;5059820;28;20048;-58
2022/04/01 09:50:17;;;;;;;5.28;0.20;;;22.70;35.50;;;;;;5053414;28;20052;-51
2022/04/01 09:52:46;;;;;;;2.25;0.00;;;22.70;35.50;;;;;;5051102;28;20132;-57
2022/04/01 09:55:13;;;;;;;0.30;0.00;;;22.80;35.50;;;;;;5058350;28;20037;-56
2022/04/01 09:57:41;;;;;;;0.30;0.00;;;23.00;35.10;;;;;;5055684;28;20045;-57
2022/04/01 10:00:09;;;;;;;0.00;0.00;;;23.10;34.70;;;;;;5056797;28;20037;-59
2022/04/01 10:02:40;;;;;;;0.35;0.10;;;23.30;34.50;;;;;;5062489;28;20121;-56
2022/04/01 10:05:08;;;;;;;0.10;0.10;;;23.30;34.20;;;;;;5070343;28;20097;-55
2022/04/01 10:07:37;;;;;;;1.55;0.22;;;23.40;33.90;;;;;;5072841;28;20048;-55
2022/04/01 10:10:06;;;;;;;0.30;0.28;;;23.50;33.70;;;;;;5079233;28;20048;-57
2022/04/01 10:12:40;;;;;;;0.90;0.00;;;23.50;33.60;;;;;;5087599;28;20136;-59
2022/04/01 10:15:10;;;;;;;1.48;0.75;;;23.50;33.40;;;;;;5092359;28;20067;-76
2022/04/01 10:17:40;;;;;;;0.30;0.00;;;23.50;33.60;;;;;;5091765;28;20044;-67
2022/04/01 10:20:09;;;;;;;0.20;0.08;;;23.50;33.80;;;;;;5083464;28;20055;-62
2022/04/01 10:22:38;;;;;;;2.40;0.10;;;23.40;34.00;;;;;;5073748;28;20053;-61
2022/04/01 10:25:12;;;;;;;0.30;0.10;;;23.40;33.90;;;;;;5080586;28;20136;-63
2022/04/01 10:27:41;;;;;;;0.45;0.05;;;23.40;34.00;;;;;;5094738;28;20044;-65
2022/04/01 10:30:11;;;;;;;0.25;0.25;;;23.40;33.90;;;;;;5096068;28;20065;-64
2022/04/01 10:32:41;;;;;;;0.00;0.00;;;23.50;34.00;;;;;;5087428;28;20044;-68
2022/04/01 10:35:21;;;;;;;1.27;0.10;;;23.50;34.10;;;;;;5098575;28;20083;-65
2022/04/01 10:37:54;;;;;;;0.10;0.10;;;23.50;34.00;;;;;;5091837;28;20140;-66
2022/04/01 10:40:21;;;;;;;0.03;0.03;;;23.50;33.90;;;;;;5080070;28;20583;-61
2022/04/01 10:42:49;;;;;;;2.28;0.10;;;23.50;33.80;;;;;;5084567;28;20040;-60
2022/04/01 10:45:25;;;;;;;0.63;0.00;;;23.60;33.70;;;;;;5092572;28;20066;-64
2022/04/01 10:53:41;;;;;;;2.38;0.10;;;23.70;33.60;;;;;;5081751;28;20447;-61
2022/04/01 10:56:36;;;;;;;1.05;0.22;;;23.70;33.50;;;;;;5080740;28;20460;-57
2022/04/01 10:59:12;;;;;;;0.20;0.10;;;23.70;33.40;;;;;;4987101;28;20510;-55
2022/04/01 11:01:43;;;;;;;0.30;0.10;;;23.70;33.40;;;;;;4995837;28;20054;-57
2022/04/01 11:04:27;;;;;;;0.15;0.10;;;23.80;33.40;;;;;;4996033;28;20045;-57
2022/04/01 11:06:57;;;;;;;1.25;0.10;;;23.80;33.30;;;;;;4975607;28;20046;-57
2022/04/01 11:09:40;;;;;;;0.10;0.10;;;23.80;33.30;;;;;;4992469;28;20058;-52
2022/04/01 11:12:42;;;;;;;0.15;0.10;;;23.90;33.30;;;;;;4996225;28;20049;-54
2022/04/01 11:15:25;;;;;;;0.50;0.10;;;24.00;33.20;;;;;;4964315;28;20050;-65
2022/04/01 11:18:06;;;;;;;0.60;0.17;;;24.20;33.40;;;;;;4950542;28;20042;-64
2022/04/01 11:20:35;;;;;;;2.85;0.10;;;24.40;33.10;;;;;;4949667;28;20051;-64
2022/04/01 11:23:05;;;;;;;0.10;0.10;;;24.60;32.80;;;;;;4946135;28;20427;-64
2022/04/01 11:25:54;;;;;;;1.98;0.10;;;24.70;32.50;;;;;;4951115;28;20439;-64
2022/04/01 11:28:25;;;;;;;0.75;0.75;;;25.00;32.10;;;;;;4964712;28;20046;-64
2022/04/01 11:31:17;;;;;;;0.20;0.10;;;24.90;31.80;;;;;;4968330;28;20061;-62
2022/04/01 11:34:01;;;;;;;0.43;0.10;;;24.90;31.60;;;;;;4949092;28;20043;-63
2022/04/01 11:36:29;;;;;;;2.08;0.15;;;24.70;31.50;;;;;;5016854;28;20081;-62
2022/04/01 11:38:56;;;;;;;0.10;0.10;;;24.60;31.60;;;;;;5020694;28;20148;-61
2022/04/01 11:41:25;;;;;;;0.10;0.10;;;24.40;31.60;;;;;;5020631;28;20045;-62
2022/04/01 11:43:53;;;;;;;0.10;0.00;;;24.40;31.70;;;;;;5016151;28;20146;-63
2022/04/01 11:46:21;;;;;;;3.15;0.10;;;24.30;31.70;;;;;;5046287;28;20477;-62
2022/04/01 11:48:50;;;;;;;1.85;0.10;;;24.30;31.80;;;;;;5082000;28;20040;-61
2022/04/01 11:51:20;;;;;;;0.57;0.35;;;24.20;31.80;;;;;;5076608;28;20062;-61
2022/04/01 11:53:49;;;;;;;0.68;0.10;;;24.10;31.90;;;;;;5077867;28;20044;-62
2022/04/01 11:56:18;;;;;;;0.22;0.10;;;24.10;31.90;;;;;;5079866;28;20035;-62
2022/04/01 11:58:56;;;;;;;1.33;0.10;;;24.10;32.00;;;;;;5081493;28;20607;-62
2022/04/01 12:01:26;;;;;;;1.10;0.10;;;24.10;32.00;;;;;;5071468;28;20048;-62
2022/04/01 12:04:05;;;;;;;0.73;0.10;;;24.00;32.00;;;;;;5083425;28;20056;-62
2022/04/01 12:09:17;;;;;;;0.45;0.10;;;23.90;32.10;;;;;;5074263;28;20056;-61
2022/04/01 12:11:46;;;;;;;2.17;0.10;;;23.90;32.20;;;;;;5073829;28;20090;-62
2022/04/01 12:14:23;;;;;;;0.10;0.10;;;23.80;32.10;;;;;;5078061;28;20044;-60
2022/04/01 12:16:51;;;;;;;0.22;0.10;;;23.80;32.20;;;;;;5067809;28;20044;-61
2022/04/01 12:19:21;;;;;;;2.15;0.10;;;23.80;32.30;;;;;;5071902;28;20036;-61
2022/04/01 12:21:50;;;;;;;2.17;0.10;;;23.70;32.20;;;;;;5071052;28;20428;-63
2022/04/01 12:24:19;;;;;;;0.10;0.10;;;23.70;32.30;;;;;;5071840;28;20129;-62
2022/04/01 12:26:48;;;;;;;0.50;0.10;;;23.70;32.30;;;;;;5073315;28;20055;-62
2022/04/01 12:29:21;;;;;;;2.05;0.10;;;23.70;32.40;;;;;;5069108;28;20040;-63
2022/04/01 12:31:54;;;;;;;0.10;0.10;;;23.70;32.50;;;;;;5066360;28;20086;-63
2022/04/01 12:34:22;;;;;;;1.00;0.30;;;23.70;32.50;;;;;;5069424;28;20044;-63
2022/04/01 12:36:55;;;;;;;0.52;0.20;;;23.70;32.60;;;;;;5076488;28;20044;-61
2022/04/01 12:39:22;;;;;;;0.20;0.10;;;23.70;32.60;;;;;;5069306;28;20049;-61
2022/04/01 12:41:51;;;;;;;2.40;0.10;;;23.60;32.60;;;;;;5077391;28;20055;-62
2022/04/01 12:44:24;;;;;;;0.10;0.10;;;23.60;32.60;;;;;;5074692;28;20047;-63
2022/04/01 12:46:51;;;;;;;0.13;0.10;;;23.60;32.70;;;;;;5070366;28;20449;-58
2022/04/01 12:49:21;;;;;;;1.90;0.05;;;23.60;32.90;;;;;;5066306;28;20588;-52
2022/04/01 12:51:51;;;;;;;0.20;0.03;;;23.60;33.00;;;;;;5070286;28;20066;-66
2022/04/01 12:54:31;;;;;;;0.05;0.05;;;23.60;33.10;;;;;;5077512;28;20089;-64
2022/04/01 12:57:00;;;;;;;4.32;0.20;;;23.70;33.00;;;;;;5072373;28;20094;-64
2022/04/01 12:59:35;;;;;;;4.53;0.10;;;23.60;32.80;;;;;;5070933;28;20044;-63
2022/04/01 13:02:05;;;;;;;1.27;0.10;;;23.60;32.80;;;;;;5068689;28;20069;-64
2022/04/01 13:04:39;;;;;;;1.63;0.10;;;23.50;32.80;;;;;;5064157;28;20413;-64
2022/04/01 13:07:09;;;;;;;1.05;0.10;;;23.60;32.80;;;;;;5073647;28;20047;-65
2022/04/01 13:09:54;;;;;;;3.13;0.10;;;23.50;32.70;;;;;;5075547;28;20049;-64
2022/04/01 13:12:23;;;;;;;0.55;0.10;;;23.50;32.70;;;;;;5077770;28;20050;-65
2022/04/01 13:15:00;;;;;;;0.52;0.10;;;23.50;32.80;;;;;;5074820;28;20119;-65
2022/04/01 13:17:29;;;;;;;0.73;0.43;;;23.50;32.80;;;;;;5078428;28;20052;-65
2022/04/01 13:19:56;;;;;;;1.15;0.85;;;23.50;32.80;;;;;;5077463;28;20047;-65
2022/04/01 13:22:24;;;;;;;2.42;0.10;;;23.50;32.80;;;;;;5065340;28;20040;-61
2022/04/01 13:24:52;;;;;;;1.63;0.30;;;23.50;32.90;;;;;;5073053;28;20044;-58